Terminal Aerodrome Forecast
Issued by NWS Birmingham, AL

Current Version | Previous Version | Text Only | Print | Product List | Glossary On
Versions: 1 2 3 4 5 6 7 8 9 10 11 12 13 14 15 16 17 18 19 20 21
000
FTUS44 KBMX 181134
TAFBHM
TAF
KBHM 181134Z 1812/1912 07005KT 4SM BR OVC007
      TEMPO 1812/1813 2SM BR OVC004
     FM181500 08004KT 6SM BR BKN007 OVC015
     FM181600 10005KT P6SM BKN015 OVC035
     FM190100 19012KT 3SM TSRA BR OVC010CB=

USA.gov is the U.S. government's official web portal to all federal, state and local government web resources and services.